sensor_id;sensor_type;location;lat;lon;timestamp;P1;durP1;ratioP1;P2;durP2;ratioP2
65706;SDS011;52423;43.512;5.220;2022-09-09T00:01:04;2.13;;;1.42;;
65706;SDS011;52423;43.512;5.220;2022-09-09T00:03:44;3.60;;;1.58;;
65706;SDS011;52423;43.512;5.220;2022-09-09T00:06:23;4.47;;;1.80;;
65706;SDS011;52423;43.512;5.220;2022-09-09T00:08:59;6.78;;;1.55;;
65706;SDS011;52423;43.512;5.220;2022-09-09T00:11:49;2.03;;;1.17;;
65706;SDS011;52423;43.512;5.220;2022-09-09T00:17:14;1.92;;;1.17;;
65706;SDS011;52423;43.512;5.220;2022-09-09T00:23:05;3.80;;;1.42;;
65706;SDS011;52423;43.512;5.220;2022-09-09T00:28:50;5.65;;;1.80;;
65706;SDS011;52423;43.512;5.220;2022-09-09T00:31:31;1.90;;;1.35;;
65706;SDS011;52423;43.512;5.220;2022-09-09T00:34:13;4.20;;;1.35;;
65706;SDS011;52423;43.512;5.220;2022-09-09T00:36:43;2.58;;;1.30;;
65706;SDS011;52423;43.512;5.220;2022-09-09T00:42:10;2.63;;;1.40;;
65706;SDS011;52423;43.512;5.220;2022-09-09T00:44:44;4.32;;;1.20;;
65706;SDS011;52423;43.512;5.220;2022-09-09T00:55:45;3.70;;;1.45;;
65706;SDS011;52423;43.512;5.220;2022-09-09T00:58:30;2.92;;;1.40;;
65706;SDS011;52423;43.512;5.220;2022-09-09T01:01:05;2.88;;;1.45;;
65706;SDS011;52423;43.512;5.220;2022-09-09T01:17:24;4.63;;;1.35;;
65706;SDS011;52423;43.512;5.220;2022-09-09T01:20:04;2.45;;;1.42;;
65706;SDS011;52423;43.512;5.220;2022-09-09T01:25:29;5.40;;;1.42;;
65706;SDS011;52423;43.512;5.220;2022-09-09T01:28:16;6.25;;;1.48;;
65706;SDS011;52423;43.512;5.220;2022-09-09T01:30:44;2.97;;;1.60;;
65706;SDS011;52423;43.512;5.220;2022-09-09T01:33:12;2.50;;;1.33;;
65706;SDS011;52423;43.512;5.220;2022-09-09T01:36:04;3.47;;;1.38;;
65706;SDS011;52423;43.512;5.220;2022-09-09T01:38:33;2.00;;;1.38;;
65706;SDS011;52423;43.512;5.220;2022-09-09T01:41:00;5.35;;;1.50;;
65706;SDS011;52423;43.512;5.220;2022-09-09T01:43:26;1.85;;;1.23;;
65706;SDS011;52423;43.512;5.220;2022-09-09T01:45:53;8.60;;;1.70;;
65706;SDS011;52423;43.512;5.220;2022-09-09T01:48:24;5.90;;;1.52;;
65706;SDS011;52423;43.512;5.220;2022-09-09T01:50:50;3.75;;;1.35;;
65706;SDS011;52423;43.512;5.220;2022-09-09T01:53:17;4.72;;;1.35;;
65706;SDS011;52423;43.512;5.220;2022-09-09T02:04:12;5.47;;;1.52;;
65706;SDS011;52423;43.512;5.220;2022-09-09T02:07:02;2.35;;;1.17;;
65706;SDS011;52423;43.512;5.220;2022-09-09T02:09:31;5.05;;;1.40;;
65706;SDS011;52423;43.512;5.220;2022-09-09T02:12:16;4.55;;;1.73;;
65706;SDS011;52423;43.512;5.220;2022-09-09T02:14:55;5.32;;;1.40;;
65706;SDS011;52423;43.512;5.220;2022-09-09T02:17:26;3.05;;;1.30;;
65706;SDS011;52423;43.512;5.220;2022-09-09T02:20:01;2.35;;;1.25;;
65706;SDS011;52423;43.512;5.220;2022-09-09T02:22:32;1.58;;;1.45;;
65706;SDS011;52423;43.512;5.220;2022-09-09T02:25:00;1.55;;;1.20;;
65706;SDS011;52423;43.512;5.220;2022-09-09T02:27:26;3.50;;;1.45;;
65706;SDS011;52423;43.512;5.220;2022-09-09T02:29:52;4.10;;;1.20;;
65706;SDS011;52423;43.512;5.220;2022-09-09T02:32:22;5.35;;;1.52;;
65706;SDS011;52423;43.512;5.220;2022-09-09T02:34:56;5.88;;;1.30;;
65706;SDS011;52423;43.512;5.220;2022-09-09T02:37:29;8.38;;;1.35;;
65706;SDS011;52423;43.512;5.220;2022-09-09T02:40:01;4.25;;;1.27;;
65706;SDS011;52423;43.512;5.220;2022-09-09T02:42:31;5.72;;;1.63;;
65706;SDS011;52423;43.512;5.220;2022-09-09T02:44:57;3.35;;;1.33;;
65706;SDS011;52423;43.512;5.220;2022-09-09T02:50:06;4.45;;;1.40;;
65706;SDS011;52423;43.512;5.220;2022-09-09T02:55:45;2.72;;;1.10;;
65706;SDS011;52423;43.512;5.220;2022-09-09T03:00:42;3.92;;;1.60;;
65706;SDS011;52423;43.512;5.220;2022-09-09T03:03:09;4.85;;;1.70;;
65706;SDS011;52423;43.512;5.220;2022-09-09T03:05:35;5.22;;;1.55;;
65706;SDS011;52423;43.512;5.220;2022-09-09T03:08:02;6.75;;;1.85;;
65706;SDS011;52423;43.512;5.220;2022-09-09T03:10:29;1.40;;;1.30;;
65706;SDS011;52423;43.512;5.220;2022-09-09T03:12:54;4.90;;;1.35;;
65706;SDS011;52423;43.512;5.220;2022-09-09T03:15:20;3.78;;;2.00;;
65706;SDS011;52423;43.512;5.220;2022-09-09T03:17:46;2.75;;;1.40;;
65706;SDS011;52423;43.512;5.220;2022-09-09T03:20:12;2.63;;;1.20;;
65706;SDS011;52423;43.512;5.220;2022-09-09T03:22:38;1.50;;;1.40;;
65706;SDS011;52423;43.512;5.220;2022-09-09T03:25:04;5.25;;;1.48;;
65706;SDS011;52423;43.512;5.220;2022-09-09T03:27:30;4.18;;;1.35;;
65706;SDS011;52423;43.512;5.220;2022-09-09T03:29:56;4.07;;;1.58;;
65706;SDS011;52423;43.512;5.220;2022-09-09T03:32:22;5.00;;;1.95;;
65706;SDS011;52423;43.512;5.220;2022-09-09T03:34:51;3.03;;;1.63;;
65706;SDS011;52423;43.512;5.220;2022-09-09T03:37:17;8.77;;;1.67;;
65706;SDS011;52423;43.512;5.220;2022-09-09T03:39:44;3.15;;;1.20;;
65706;SDS011;52423;43.512;5.220;2022-09-09T03:42:12;6.60;;;1.50;;
65706;SDS011;52423;43.512;5.220;2022-09-09T03:44:39;5.10;;;1.65;;
65706;SDS011;52423;43.512;5.220;2022-09-09T03:47:07;4.97;;;1.60;;
65706;SDS011;52423;43.512;5.220;2022-09-09T03:49:33;2.10;;;1.20;;
65706;SDS011;52423;43.512;5.220;2022-09-09T03:51:58;4.13;;;1.17;;
65706;SDS011;52423;43.512;5.220;2022-09-09T03:54:25;3.25;;;1.55;;
65706;SDS011;52423;43.512;5.220;2022-09-09T03:56:50;1.98;;;1.20;;
65706;SDS011;52423;43.512;5.220;2022-09-09T03:59:16;2.47;;;1.33;;
65706;SDS011;52423;43.512;5.220;2022-09-09T04:01:42;1.13;;;0.98;;
65706;SDS011;52423;43.512;5.220;2022-09-09T04:04:08;1.92;;;0.95;;
65706;SDS011;52423;43.512;5.220;2022-09-09T04:06:34;1.58;;;1.00;;
65706;SDS011;52423;43.512;5.220;2022-09-09T04:09:00;2.35;;;1.58;;
65706;SDS011;52423;43.512;5.220;2022-09-09T04:11:28;2.50;;;1.30;;
65706;SDS011;52423;43.512;5.220;2022-09-09T04:13:54;6.45;;;1.10;;
65706;SDS011;52423;43.512;5.220;2022-09-09T04:16:19;2.25;;;1.35;;
65706;SDS011;52423;43.512;5.220;2022-09-09T04:18:45;3.55;;;1.10;;
65706;SDS011;52423;43.512;5.220;2022-09-09T04:21:11;3.58;;;1.40;;
65706;SDS011;52423;43.512;5.220;2022-09-09T04:23:37;2.92;;;1.20;;
65706;SDS011;52423;43.512;5.220;2022-09-09T04:26:04;4.85;;;1.00;;
65706;SDS011;52423;43.512;5.220;2022-09-09T04:28:31;2.17;;;1.33;;
65706;SDS011;52423;43.512;5.220;2022-09-09T04:31:05;2.38;;;1.20;;
65706;SDS011;52423;43.512;5.220;2022-09-09T04:33:37;4.55;;;1.30;;
65706;SDS011;52423;43.512;5.220;2022-09-09T04:36:04;7.53;;;1.52;;
65706;SDS011;52423;43.512;5.220;2022-09-09T04:38:30;1.95;;;1.27;;
65706;SDS011;52423;43.512;5.220;2022-09-09T04:40:56;9.50;;;1.75;;
65706;SDS011;52423;43.512;5.220;2022-09-09T04:43:22;3.72;;;1.50;;
65706;SDS011;52423;43.512;5.220;2022-09-09T04:45:49;10.48;;;1.60;;
65706;SDS011;52423;43.512;5.220;2022-09-09T04:48:19;4.35;;;1.33;;
65706;SDS011;52423;43.512;5.220;2022-09-09T04:53:22;1.38;;;1.27;;
65706;SDS011;52423;43.512;5.220;2022-09-09T04:55:47;2.25;;;1.30;;
65706;SDS011;52423;43.512;5.220;2022-09-09T04:58:14;3.67;;;1.27;;
65706;SDS011;52423;43.512;5.220;2022-09-09T05:00:40;4.35;;;1.40;;
65706;SDS011;52423;43.512;5.220;2022-09-09T05:03:06;5.18;;;1.60;;
65706;SDS011;52423;43.512;5.220;2022-09-09T05:05:34;4.30;;;1.73;;
65706;SDS011;52423;43.512;5.220;2022-09-09T05:08:04;5.93;;;1.20;;
65706;SDS011;52423;43.512;5.220;2022-09-09T05:10:31;1.25;;;1.10;;
65706;SDS011;52423;43.512;5.220;2022-09-09T05:12:57;2.05;;;1.23;;
65706;SDS011;52423;43.512;5.220;2022-09-09T05:15:23;2.30;;;1.15;;
65706;SDS011;52423;43.512;5.220;2022-09-09T05:17:49;2.78;;;1.30;;
65706;SDS011;52423;43.512;5.220;2022-09-09T05:20:14;4.57;;;1.20;;
65706;SDS011;52423;43.512;5.220;2022-09-09T05:22:40;5.40;;;1.70;;
65706;SDS011;52423;43.512;5.220;2022-09-09T05:25:06;2.20;;;1.50;;
65706;SDS011;52423;43.512;5.220;2022-09-09T05:27:36;12.27;;;1.40;;
65706;SDS011;52423;43.512;5.220;2022-09-09T05:30:02;4.22;;;1.30;;
65706;SDS011;52423;43.512;5.220;2022-09-09T05:32:30;2.85;;;1.45;;
65706;SDS011;52423;43.512;5.220;2022-09-09T05:34:59;8.70;;;1.52;;
65706;SDS011;52423;43.512;5.220;2022-09-09T05:37:24;3.78;;;1.48;;
65706;SDS011;52423;43.512;5.220;2022-09-09T05:39:50;1.70;;;1.55;;
65706;SDS011;52423;43.512;5.220;2022-09-09T05:42:16;6.20;;;1.77;;
65706;SDS011;52423;43.512;5.220;2022-09-09T05:44:42;1.73;;;1.40;;
65706;SDS011;52423;43.512;5.220;2022-09-09T05:47:08;2.83;;;1.73;;
65706;SDS011;52423;43.512;5.220;2022-09-09T05:49:34;5.80;;;1.52;;
65706;SDS011;52423;43.512;5.220;2022-09-09T05:52:00;6.60;;;1.45;;
65706;SDS011;52423;43.512;5.220;2022-09-09T05:54:26;9.80;;;2.60;;
65706;SDS011;52423;43.512;5.220;2022-09-09T05:56:51;9.57;;;1.75;;
65706;SDS011;52423;43.512;5.220;2022-09-09T05:59:18;6.53;;;1.52;;
65706;SDS011;52423;43.512;5.220;2022-09-09T06:01:44;16.92;;;1.92;;
65706;SDS011;52423;43.512;5.220;2022-09-09T06:04:10;5.75;;;1.77;;
65706;SDS011;52423;43.512;5.220;2022-09-09T06:06:37;9.35;;;1.95;;
65706;SDS011;52423;43.512;5.220;2022-09-09T06:09:04;5.47;;;1.70;;
65706;SDS011;52423;43.512;5.220;2022-09-09T06:11:38;4.57;;;1.50;;
65706;SDS011;52423;43.512;5.220;2022-09-09T06:14:04;7.68;;;1.67;;
65706;SDS011;52423;43.512;5.220;2022-09-09T06:16:31;3.25;;;1.40;;
65706;SDS011;52423;43.512;5.220;2022-09-09T06:18:58;4.70;;;1.83;;
65706;SDS011;52423;43.512;5.220;2022-09-09T06:21:27;6.68;;;1.80;;
65706;SDS011;52423;43.512;5.220;2022-09-09T06:23:56;3.97;;;1.73;;
65706;SDS011;52423;43.512;5.220;2022-09-09T06:26:32;8.00;;;1.38;;
65706;SDS011;52423;43.512;5.220;2022-09-09T06:28:59;5.55;;;1.40;;
65706;SDS011;52423;43.512;5.220;2022-09-09T06:31:26;10.75;;;1.50;;
65706;SDS011;52423;43.512;5.220;2022-09-09T06:33:55;5.32;;;2.00;;
65706;SDS011;52423;43.512;5.220;2022-09-09T06:36:23;11.05;;;1.40;;
65706;SDS011;52423;43.512;5.220;2022-09-09T06:38:50;6.43;;;1.98;;
65706;SDS011;52423;43.512;5.220;2022-09-09T06:41:17;8.55;;;1.70;;
65706;SDS011;52423;43.512;5.220;2022-09-09T06:43:44;15.20;;;1.83;;
65706;SDS011;52423;43.512;5.220;2022-09-09T06:46:11;9.38;;;1.63;;
65706;SDS011;52423;43.512;5.220;2022-09-09T06:48:42;15.80;;;2.40;;
65706;SDS011;52423;43.512;5.220;2022-09-09T06:51:13;12.40;;;2.15;;
65706;SDS011;52423;43.512;5.220;2022-09-09T06:53:41;9.15;;;1.88;;
65706;SDS011;52423;43.512;5.220;2022-09-09T06:58:39;7.60;;;1.63;;
65706;SDS011;52423;43.512;5.220;2022-09-09T07:01:12;8.85;;;1.60;;
65706;SDS011;52423;43.512;5.220;2022-09-09T07:03:40;5.65;;;1.33;;
65706;SDS011;52423;43.512;5.220;2022-09-09T07:06:08;13.10;;;2.65;;
65706;SDS011;52423;43.512;5.220;2022-09-09T07:08:40;8.05;;;1.67;;
65706;SDS011;52423;43.512;5.220;2022-09-09T07:11:06;4.20;;;1.65;;
65706;SDS011;52423;43.512;5.220;2022-09-09T07:13:33;3.72;;;1.38;;
65706;SDS011;52423;43.512;5.220;2022-09-09T07:16:09;3.30;;;1.42;;
65706;SDS011;52423;43.512;5.220;2022-09-09T07:18:36;1.80;;;1.25;;
65706;SDS011;52423;43.512;5.220;2022-09-09T07:21:02;4.78;;;1.75;;
65706;SDS011;52423;43.512;5.220;2022-09-09T07:23:29;2.65;;;1.30;;
65706;SDS011;52423;43.512;5.220;2022-09-09T07:25:56;6.80;;;1.25;;
65706;SDS011;52423;43.512;5.220;2022-09-09T07:28:23;4.97;;;1.42;;
65706;SDS011;52423;43.512;5.220;2022-09-09T07:33:21;4.00;;;1.40;;
65706;SDS011;52423;43.512;5.220;2022-09-09T07:35:48;3.05;;;1.42;;
65706;SDS011;52423;43.512;5.220;2022-09-09T07:38:14;3.00;;;1.58;;
65706;SDS011;52423;43.512;5.220;2022-09-09T07:40:40;7.35;;;1.55;;
65706;SDS011;52423;43.512;5.220;2022-09-09T07:43:05;3.95;;;1.25;;
65706;SDS011;52423;43.512;5.220;2022-09-09T07:45:32;6.53;;;1.30;;
65706;SDS011;52423;43.512;5.220;2022-09-09T07:47:59;2.85;;;1.38;;
65706;SDS011;52423;43.512;5.220;2022-09-09T07:50:25;2.33;;;0.80;;
65706;SDS011;52423;43.512;5.220;2022-09-09T07:52:52;1.95;;;1.20;;
65706;SDS011;52423;43.512;5.220;2022-09-09T07:55:19;1.20;;;1.08;;
65706;SDS011;52423;43.512;5.220;2022-09-09T07:57:50;2.75;;;0.88;;
65706;SDS011;52423;43.512;5.220;2022-09-09T08:00:16;3.63;;;1.10;;
65706;SDS011;52423;43.512;5.220;2022-09-09T08:02:43;3.10;;;0.90;;
65706;SDS011;52423;43.512;5.220;2022-09-09T08:05:09;0.98;;;0.90;;
65706;SDS011;52423;43.512;5.220;2022-09-09T08:07:35;4.13;;;0.82;;
65706;SDS011;52423;43.512;5.220;2022-09-09T08:10:01;1.55;;;0.80;;
65706;SDS011;52423;43.512;5.220;2022-09-09T08:12:28;2.58;;;0.90;;
65706;SDS011;52423;43.512;5.220;2022-09-09T08:14:53;0.77;;;0.63;;
65706;SDS011;52423;43.512;5.220;2022-09-09T08:17:19;1.13;;;0.57;;
65706;SDS011;52423;43.512;5.220;2022-09-09T08:19:45;8.45;;;0.90;;
65706;SDS011;52423;43.512;5.220;2022-09-09T08:22:10;1.73;;;1.00;;
65706;SDS011;52423;43.512;5.220;2022-09-09T08:24:36;2.30;;;0.88;;
65706;SDS011;52423;43.512;5.220;2022-09-09T08:27:02;2.38;;;1.20;;
65706;SDS011;52423;43.512;5.220;2022-09-09T08:29:27;1.92;;;1.20;;
65706;SDS011;52423;43.512;5.220;2022-09-09T08:31:55;10.30;;;1.30;;
65706;SDS011;52423;43.512;5.220;2022-09-09T08:34:22;3.90;;;1.63;;
65706;SDS011;52423;43.512;5.220;2022-09-09T08:36:52;4.28;;;0.93;;
65706;SDS011;52423;43.512;5.220;2022-09-09T08:39:18;3.83;;;1.30;;
65706;SDS011;52423;43.512;5.220;2022-09-09T08:41:52;2.92;;;1.20;;
65706;SDS011;52423;43.512;5.220;2022-09-09T08:50:36;2.60;;;1.10;;
65706;SDS011;52423;43.512;5.220;2022-09-09T08:55:48;3.28;;;0.90;;
65706;SDS011;52423;43.512;5.220;2022-09-09T08:58:17;1.73;;;1.00;;
65706;SDS011;52423;43.512;5.220;2022-09-09T09:09:02;2.20;;;1.00;;
65706;SDS011;52423;43.512;5.220;2022-09-09T09:11:50;0.93;;;0.88;;
65706;SDS011;52423;43.512;5.220;2022-09-09T09:14:23;1.45;;;0.60;;
65706;SDS011;52423;43.512;5.220;2022-09-09T09:19:18;1.98;;;0.90;;
65706;SDS011;52423;43.512;5.220;2022-09-09T09:24:41;0.50;;;0.45;;
65706;SDS011;52423;43.512;5.220;2022-09-09T09:30:19;1.85;;;0.65;;
65706;SDS011;52423;43.512;5.220;2022-09-09T09:35:37;1.75;;;0.60;;
65706;SDS011;52423;43.512;5.220;2022-09-09T09:38:10;1.58;;;0.70;;
65706;SDS011;52423;43.512;5.220;2022-09-09T09:40:52;0.90;;;0.52;;
65706;SDS011;52423;43.512;5.220;2022-09-09T09:45:55;1.75;;;0.90;;
65706;SDS011;52423;43.512;5.220;2022-09-09T09:48:23;1.85;;;0.70;;
65706;SDS011;52423;43.512;5.220;2022-09-09T09:53:36;3.95;;;0.70;;
65706;SDS011;52423;43.512;5.220;2022-09-09T09:56:04;2.83;;;0.80;;
65706;SDS011;52423;43.512;5.220;2022-09-09T09:58:35;1.45;;;0.73;;
65706;SDS011;52423;43.512;5.220;2022-09-09T10:04:12;2.00;;;0.63;;
65706;SDS011;52423;43.512;5.220;2022-09-09T10:06:43;3.40;;;0.50;;
65706;SDS011;52423;43.512;5.220;2022-09-09T10:12:11;1.00;;;0.80;;
65706;SDS011;52423;43.512;5.220;2022-09-09T10:15:02;6.95;;;0.60;;
65706;SDS011;52423;43.512;5.220;2022-09-09T10:31:41;0.90;;;0.60;;
65706;SDS011;52423;43.512;5.220;2022-09-09T10:34:26;1.63;;;0.68;;
65706;SDS011;52423;43.512;5.220;2022-09-09T10:40:32;1.17;;;0.90;;
65706;SDS011;52423;43.512;5.220;2022-09-09T10:48:43;4.28;;;0.55;;
65706;SDS011;52423;43.512;5.220;2022-09-09T10:56:40;1.13;;;0.80;;
65706;SDS011;52423;43.512;5.220;2022-09-09T10:59:14;0.60;;;0.55;;
65706;SDS011;52423;43.512;5.220;2022-09-09T11:01:47;2.67;;;0.65;;
65706;SDS011;52423;43.512;5.220;2022-09-09T11:04:19;0.73;;;0.60;;
65706;SDS011;52423;43.512;5.220;2022-09-09T11:06:49;1.67;;;0.90;;
65706;SDS011;52423;43.512;5.220;2022-09-09T11:09:23;1.90;;;0.70;;
65706;SDS011;52423;43.512;5.220;2022-09-09T11:11:54;2.45;;;0.60;;
65706;SDS011;52423;43.512;5.220;2022-09-09T11:14:22;3.72;;;0.68;;
65706;SDS011;52423;43.512;5.220;2022-09-09T11:17:12;1.73;;;0.68;;
65706;SDS011;52423;43.512;5.220;2022-09-09T11:19:52;1.98;;;0.80;;
65706;SDS011;52423;43.512;5.220;2022-09-09T11:24:53;1.58;;;0.80;;
65706;SDS011;52423;43.512;5.220;2022-09-09T11:27:26;1.50;;;0.80;;
65706;SDS011;52423;43.512;5.220;2022-09-09T11:40:44;2.60;;;0.88;;
65706;SDS011;52423;43.512;5.220;2022-09-09T11:43:12;1.45;;;1.02;;
65706;SDS011;52423;43.512;5.220;2022-09-09T11:45:59;0.75;;;0.70;;
65706;SDS011;52423;43.512;5.220;2022-09-09T11:48:41;1.38;;;0.63;;
65706;SDS011;52423;43.512;5.220;2022-09-09T11:51:12;1.58;;;0.90;;
65706;SDS011;52423;43.512;5.220;2022-09-09T11:53:54;0.77;;;0.75;;
65706;SDS011;52423;43.512;5.220;2022-09-09T11:56:30;2.40;;;0.95;;
65706;SDS011;52423;43.512;5.220;2022-09-09T11:58:58;3.08;;;0.88;;
65706;SDS011;52423;43.512;5.220;2022-09-09T12:01:41;4.80;;;0.70;;
65706;SDS011;52423;43.512;5.220;2022-09-09T12:06:44;1.05;;;0.70;;
65706;SDS011;52423;43.512;5.220;2022-09-09T12:09:22;0.60;;;0.57;;
65706;SDS011;52423;43.512;5.220;2022-09-09T12:12:21;0.90;;;0.60;;
65706;SDS011;52423;43.512;5.220;2022-09-09T12:20:40;1.17;;;0.80;;
65706;SDS011;52423;43.512;5.220;2022-09-09T12:36:58;2.97;;;0.70;;
65706;SDS011;52423;43.512;5.220;2022-09-09T12:39:37;0.90;;;0.77;;
65706;SDS011;52423;43.512;5.220;2022-09-09T12:42:17;1.65;;;0.77;;
65706;SDS011;52423;43.512;5.220;2022-09-09T12:44:54;4.82;;;1.10;;
65706;SDS011;52423;43.512;5.220;2022-09-09T12:47:34;1.52;;;0.82;;
65706;SDS011;52423;43.512;5.220;2022-09-09T12:50:21;0.80;;;0.80;;
65706;SDS011;52423;43.512;5.220;2022-09-09T12:52:51;2.42;;;0.80;;
65706;SDS011;52423;43.512;5.220;2022-09-09T12:55:48;1.65;;;0.70;;
65706;SDS011;52423;43.512;5.220;2022-09-09T12:58:15;1.00;;;0.93;;
65706;SDS011;52423;43.512;5.220;2022-09-09T13:00:50;2.42;;;0.73;;
65706;SDS011;52423;43.512;5.220;2022-09-09T13:03:18;4.60;;;0.82;;
65706;SDS011;52423;43.512;5.220;2022-09-09T13:05:46;5.35;;;1.00;;
65706;SDS011;52423;43.512;5.220;2022-09-09T13:08:12;1.65;;;0.65;;
65706;SDS011;52423;43.512;5.220;2022-09-09T13:10:40;0.82;;;0.82;;
65706;SDS011;52423;43.512;5.220;2022-09-09T13:13:19;4.57;;;1.23;;
65706;SDS011;52423;43.512;5.220;2022-09-09T13:15:51;1.10;;;1.00;;
65706;SDS011;52423;43.512;5.220;2022-09-09T13:18:23;2.22;;;0.90;;
65706;SDS011;52423;43.512;5.220;2022-09-09T13:20:52;0.90;;;0.75;;
65706;SDS011;52423;43.512;5.220;2022-09-09T13:23:18;2.60;;;0.80;;
65706;SDS011;52423;43.512;5.220;2022-09-09T13:25:56;2.22;;;0.70;;
65706;SDS011;52423;43.512;5.220;2022-09-09T13:28:25;3.05;;;1.05;;
65706;SDS011;52423;43.512;5.220;2022-09-09T13:30:56;1.27;;;0.80;;
65706;SDS011;52423;43.512;5.220;2022-09-09T13:33:29;1.05;;;0.60;;
65706;SDS011;52423;43.512;5.220;2022-09-09T13:35:57;2.72;;;0.73;;
65706;SDS011;52423;43.512;5.220;2022-09-09T13:38:52;1.70;;;1.02;;
65706;SDS011;52423;43.512;5.220;2022-09-09T13:41:32;0.93;;;0.90;;
65706;SDS011;52423;43.512;5.220;2022-09-09T13:44:01;1.08;;;0.80;;
65706;SDS011;52423;43.512;5.220;2022-09-09T13:46:38;2.42;;;1.13;;
65706;SDS011;52423;43.512;5.220;2022-09-09T13:54:06;1.50;;;0.90;;
65706;SDS011;52423;43.512;5.220;2022-09-09T13:56:35;2.45;;;0.75;;
65706;SDS011;52423;43.512;5.220;2022-09-09T13:59:02;2.38;;;1.27;;
65706;SDS011;52423;43.512;5.220;2022-09-09T14:01:29;1.88;;;0.93;;
65706;SDS011;52423;43.512;5.220;2022-09-09T14:03:56;1.17;;;1.00;;
65706;SDS011;52423;43.512;5.220;2022-09-09T14:06:22;3.00;;;1.00;;
65706;SDS011;52423;43.512;5.220;2022-09-09T14:08:51;1.40;;;0.80;;
65706;SDS011;52423;43.512;5.220;2022-09-09T14:11:17;4.43;;;1.30;;
65706;SDS011;52423;43.512;5.220;2022-09-09T14:13:43;3.70;;;1.00;;
65706;SDS011;52423;43.512;5.220;2022-09-09T14:16:09;1.02;;;0.90;;
65706;SDS011;52423;43.512;5.220;2022-09-09T14:18:35;3.35;;;1.08;;
65706;SDS011;52423;43.512;5.220;2022-09-09T14:21:01;3.13;;;1.30;;
65706;SDS011;52423;43.512;5.220;2022-09-09T14:23:28;1.15;;;0.70;;
65706;SDS011;52423;43.512;5.220;2022-09-09T14:25:54;0.80;;;0.70;;
65706;SDS011;52423;43.512;5.220;2022-09-09T14:28:20;1.58;;;1.00;;
65706;SDS011;52423;43.512;5.220;2022-09-09T14:30:45;3.35;;;1.05;;
65706;SDS011;52423;43.512;5.220;2022-09-09T14:33:12;1.83;;;0.80;;
65706;SDS011;52423;43.512;5.220;2022-09-09T14:35:39;0.80;;;0.80;;
65706;SDS011;52423;43.512;5.220;2022-09-09T14:38:06;1.40;;;1.20;;
65706;SDS011;52423;43.512;5.220;2022-09-09T14:40:34;3.15;;;0.90;;
65706;SDS011;52423;43.512;5.220;2022-09-09T14:43:01;5.40;;;1.17;;
65706;SDS011;52423;43.512;5.220;2022-09-09T14:45:27;1.10;;;0.85;;
65706;SDS011;52423;43.512;5.220;2022-09-09T14:47:53;1.23;;;1.08;;
65706;SDS011;52423;43.512;5.220;2022-09-09T14:50:19;2.55;;;0.80;;
65706;SDS011;52423;43.512;5.220;2022-09-09T14:52:46;1.38;;;0.90;;
65706;SDS011;52423;43.512;5.220;2022-09-09T14:55:12;1.13;;;0.90;;
65706;SDS011;52423;43.512;5.220;2022-09-09T14:57:38;1.48;;;0.82;;
65706;SDS011;52423;43.512;5.220;2022-09-09T15:00:05;8.80;;;1.02;;
65706;SDS011;52423;43.512;5.220;2022-09-09T15:02:33;3.78;;;0.80;;
65706;SDS011;52423;43.512;5.220;2022-09-09T15:04:58;0.98;;;0.80;;
65706;SDS011;52423;43.512;5.220;2022-09-09T15:07:24;0.73;;;0.70;;
65706;SDS011;52423;43.512;5.220;2022-09-09T15:09:52;1.08;;;0.90;;
65706;SDS011;52423;43.512;5.220;2022-09-09T15:12:18;1.05;;;0.95;;
65706;SDS011;52423;43.512;5.220;2022-09-09T15:14:44;3.13;;;0.70;;
65706;SDS011;52423;43.512;5.220;2022-09-09T15:17:10;1.98;;;1.08;;
65706;SDS011;52423;43.512;5.220;2022-09-09T15:19:36;2.03;;;0.80;;
65706;SDS011;52423;43.512;5.220;2022-09-09T15:22:03;3.78;;;0.85;;
65706;SDS011;52423;43.512;5.220;2022-09-09T15:24:33;1.00;;;0.90;;
65706;SDS011;52423;43.512;5.220;2022-09-09T15:26:59;1.65;;;0.98;;
65706;SDS011;52423;43.512;5.220;2022-09-09T15:29:26;1.58;;;0.90;;
65706;SDS011;52423;43.512;5.220;2022-09-09T15:31:52;3.38;;;0.93;;
65706;SDS011;52423;43.512;5.220;2022-09-09T15:34:18;4.22;;;0.68;;
65706;SDS011;52423;43.512;5.220;2022-09-09T15:36:44;1.58;;;0.90;;
65706;SDS011;52423;43.512;5.220;2022-09-09T15:39:15;3.17;;;1.20;;
65706;SDS011;52423;43.512;5.220;2022-09-09T15:41:45;2.03;;;0.95;;
65706;SDS011;52423;43.512;5.220;2022-09-09T15:44:12;2.70;;;1.02;;
65706;SDS011;52423;43.512;5.220;2022-09-09T15:46:39;3.13;;;1.10;;
65706;SDS011;52423;43.512;5.220;2022-09-09T15:49:16;0.80;;;0.80;;
65706;SDS011;52423;43.512;5.220;2022-09-09T15:51:44;4.18;;;1.10;;
65706;SDS011;52423;43.512;5.220;2022-09-09T15:54:13;1.05;;;0.93;;
65706;SDS011;52423;43.512;5.220;2022-09-09T15:56:42;1.65;;;0.80;;
65706;SDS011;52423;43.512;5.220;2022-09-09T15:59:08;0.88;;;0.82;;
65706;SDS011;52423;43.512;5.220;2022-09-09T16:01:34;2.15;;;1.00;;
65706;SDS011;52423;43.512;5.220;2022-09-09T16:04:00;1.85;;;1.05;;
65706;SDS011;52423;43.512;5.220;2022-09-09T16:06:27;4.55;;;1.00;;
65706;SDS011;52423;43.512;5.220;2022-09-09T16:08:54;0.95;;;0.90;;
65706;SDS011;52423;43.512;5.220;2022-09-09T16:11:39;1.63;;;1.08;;
65706;SDS011;52423;43.512;5.220;2022-09-09T16:14:04;1.38;;;0.95;;
65706;SDS011;52423;43.512;5.220;2022-09-09T16:16:31;1.45;;;1.20;;
65706;SDS011;52423;43.512;5.220;2022-09-09T16:18:58;1.02;;;0.93;;
65706;SDS011;52423;43.512;5.220;2022-09-09T16:21:27;0.90;;;0.90;;
65706;SDS011;52423;43.512;5.220;2022-09-09T16:23:58;1.65;;;1.17;;
65706;SDS011;52423;43.512;5.220;2022-09-09T16:26:25;1.20;;;0.98;;
65706;SDS011;52423;43.512;5.220;2022-09-09T16:28:51;0.95;;;0.95;;
65706;SDS011;52423;43.512;5.220;2022-09-09T16:31:19;3.72;;;0.90;;
65706;SDS011;52423;43.512;5.220;2022-09-09T16:33:46;1.67;;;1.20;;
65706;SDS011;52423;43.512;5.220;2022-09-09T16:36:20;4.15;;;1.38;;
65706;SDS011;52423;43.512;5.220;2022-09-09T16:38:56;1.73;;;1.00;;
65706;SDS011;52423;43.512;5.220;2022-09-09T16:41:23;2.15;;;1.08;;
65706;SDS011;52423;43.512;5.220;2022-09-09T16:43:54;3.33;;;1.10;;
65706;SDS011;52423;43.512;5.220;2022-09-09T16:46:21;2.25;;;1.00;;
65706;SDS011;52423;43.512;5.220;2022-09-09T16:48:49;1.17;;;0.80;;
65706;SDS011;52423;43.512;5.220;2022-09-09T16:51:16;2.90;;;0.80;;
65706;SDS011;52423;43.512;5.220;2022-09-09T16:53:44;1.48;;;0.93;;
65706;SDS011;52423;43.512;5.220;2022-09-09T16:56:11;3.53;;;0.90;;
65706;SDS011;52423;43.512;5.220;2022-09-09T16:58:39;1.02;;;0.77;;
65706;SDS011;52423;43.512;5.220;2022-09-09T17:01:05;5.70;;;1.00;;
65706;SDS011;52423;43.512;5.220;2022-09-09T17:03:31;1.08;;;0.77;;
65706;SDS011;52423;43.512;5.220;2022-09-09T17:05:58;1.92;;;1.00;;
65706;SDS011;52423;43.512;5.220;2022-09-09T17:08:27;2.40;;;0.70;;
65706;SDS011;52423;43.512;5.220;2022-09-09T17:10:55;2.58;;;1.02;;
65706;SDS011;52423;43.512;5.220;2022-09-09T17:13:20;4.43;;;0.93;;
65706;SDS011;52423;43.512;5.220;2022-09-09T17:15:46;2.17;;;1.38;;
65706;SDS011;52423;43.512;5.220;2022-09-09T17:18:12;2.17;;;0.82;;
65706;SDS011;52423;43.512;5.220;2022-09-09T17:20:38;2.60;;;1.15;;
65706;SDS011;52423;43.512;5.220;2022-09-09T17:23:06;5.28;;;1.10;;
65706;SDS011;52423;43.512;5.220;2022-09-09T17:25:33;0.95;;;0.75;;
65706;SDS011;52423;43.512;5.220;2022-09-09T17:27:59;1.63;;;0.93;;
65706;SDS011;52423;43.512;5.220;2022-09-09T17:30:25;1.60;;;0.80;;
65706;SDS011;52423;43.512;5.220;2022-09-09T17:32:52;3.53;;;0.88;;
65706;SDS011;52423;43.512;5.220;2022-09-09T17:35:18;2.13;;;1.17;;
65706;SDS011;52423;43.512;5.220;2022-09-09T17:37:44;3.10;;;0.75;;
65706;SDS011;52423;43.512;5.220;2022-09-09T17:40:10;5.10;;;1.10;;
65706;SDS011;52423;43.512;5.220;2022-09-09T17:42:35;1.48;;;0.90;;
65706;SDS011;52423;43.512;5.220;2022-09-09T17:45:01;2.92;;;1.13;;
65706;SDS011;52423;43.512;5.220;2022-09-09T17:47:28;1.67;;;1.00;;
65706;SDS011;52423;43.512;5.220;2022-09-09T17:49:55;1.65;;;0.70;;
65706;SDS011;52423;43.512;5.220;2022-09-09T17:52:21;1.27;;;1.08;;